createdAt,value
2019-04-06T08:45:39.111Z,590.62
2019-04-06T08:46:39.108Z,590.62
2019-04-06T08:47:39.383Z,641.25
2019-04-06T08:48:39.091Z,646.87
2019-04-06T08:49:39.091Z,703.12
2019-04-06T08:50:39.080Z,742.50
2019-04-06T08:51:39.073Z,770.62
2019-04-06T08:52:39.072Z,810.00
2019-04-06T08:53:39.061Z,860.62
2019-04-06T08:54:39.054Z,945.00
2019-04-06T08:55:39.045Z,1074.37
2019-04-06T08:56:39.045Z,1248.75
2019-04-06T08:57:39.113Z,1473.75
2019-04-06T08:58:39.028Z,1710.00
2019-04-06T09:02:06.737Z,3144.37
2019-04-06T09:03:06.732Z,3155.62
2019-04-06T09:04:06.921Z,2778.75
2019-04-06T09:05:06.722Z,2323.12
2019-04-06T09:06:06.813Z,2013.75
2019-04-06T09:07:06.708Z,1845.00
2019-04-06T09:08:06.791Z,1203.75
2019-04-06T09:09:06.698Z,506.25
2019-04-06T09:10:06.709Z,331.87
2019-04-06T09:11:06.684Z,320.62
2019-04-06T09:12:06.679Z,292.50
2019-04-06T09:13:06.677Z,281.25
2019-04-06T09:14:06.666Z,275.62
2019-04-06T09:15:06.724Z,286.87
2019-04-06T09:16:06.678Z,303.75
2019-04-06T09:17:06.693Z,275.62
2019-04-06T09:18:06.818Z,270.00
2019-04-06T09:19:06.730Z,270.00
2019-04-06T09:20:06.686Z,270.00
2019-04-06T09:21:06.673Z,281.25
2019-04-06T09:22:06.663Z,292.50
2019-04-06T09:23:06.657Z,281.25
2019-04-06T09:24:06.701Z,275.62
2019-04-06T09:25:06.642Z,286.87
2019-04-06T09:26:06.641Z,315.00
2019-04-06T09:27:06.635Z,343.12
2019-04-06T09:28:06.878Z,365.62
2019-04-06T09:29:06.623Z,388.12
2019-04-06T09:30:06.613Z,416.25
2019-04-06T09:31:06.608Z,466.87
2019-04-06T09:32:06.602Z,725.62
2019-04-06T09:33:06.597Z,1108.12
2019-04-06T09:34:06.615Z,1248.75
2019-04-06T09:35:06.589Z,1293.75
2019-04-06T09:36:06.580Z,1327.50
2019-04-06T09:37:06.574Z,1383.75
2019-04-06T09:38:06.569Z,1389.37
2019-04-06T09:39:06.563Z,1366.87
2019-04-06T09:40:06.556Z,1366.87
2019-04-06T09:41:06.579Z,1389.37
2019-04-06T09:42:06.541Z,1366.87
2019-04-06T09:44:06.528Z,1265.62
2019-04-06T09:45:06.525Z,1350.00
2019-04-06T09:46:06.524Z,1400.62
2019-04-06T09:47:06.512Z,1355.62
2019-04-06T09:48:06.505Z,1350.00
2019-04-06T09:49:06.503Z,1316.25
2019-04-06T09:50:06.495Z,1333.12
2019-04-06T09:51:06.488Z,1361.25
2019-04-06T09:52:06.483Z,1395.00
2019-04-06T09:53:06.478Z,1434.37
2019-04-06T09:54:07.629Z,1614.37
2019-04-06T09:55:06.481Z,1665.00
2019-04-06T09:56:06.476Z,1648.12
2019-04-06T09:57:06.469Z,1715.62
2019-04-06T09:58:06.461Z,1715.62
2019-04-06T09:59:06.620Z,1400.62
2019-04-06T10:00:06.450Z,1366.87
2019-04-06T10:01:06.444Z,1158.75
2019-04-06T10:02:06.437Z,1153.12
2019-04-06T10:03:06.450Z,1091.25
2019-04-06T10:04:06.424Z,1057.50
2019-04-06T10:05:06.422Z,545.62
2019-04-06T10:06:06.664Z,652.50
2019-04-06T10:07:06.605Z,669.37
2019-04-06T10:09:06.395Z,646.87
2019-04-06T10:10:06.389Z,534.37
2019-04-06T10:11:06.384Z,540.00
2019-04-06T10:12:06.544Z,663.75
2019-04-06T10:13:06.444Z,388.12
2019-04-06T10:14:06.437Z,275.62
2019-04-06T10:15:06.372Z,382.50
2019-04-06T10:16:06.367Z,438.75
2019-04-06T10:17:06.360Z,438.75
2019-04-06T10:18:06.354Z,348.75
2019-04-06T10:19:06.589Z,466.87
2019-04-06T10:20:06.340Z,568.12
2019-04-06T10:21:06.498Z,680.62
2019-04-06T10:23:06.322Z,258.75
2019-04-06T10:24:06.496Z,247.50
2019-04-06T10:25:06.444Z,213.75
2019-04-06T10:26:06.307Z,213.75
2019-04-06T10:27:06.299Z,174.37
2019-04-06T10:28:06.291Z,180.00
2019-04-06T10:29:06.361Z,180.00
2019-04-06T10:30:06.280Z,208.12
2019-04-06T10:31:06.274Z,202.50
2019-04-06T10:33:06.400Z,185.62
2019-04-06T10:34:06.254Z,185.62
2019-04-06T10:35:06.246Z,174.37
2019-04-06T10:36:06.527Z,174.37
2019-04-06T10:37:06.446Z,174.37
2019-04-06T10:38:06.455Z,168.75
2019-04-06T10:39:06.223Z,163.12
2019-04-06T10:40:06.360Z,157.50
2019-04-06T10:41:06.208Z,151.87
2019-04-06T10:42:06.200Z,151.87
2019-04-06T10:43:06.283Z,163.12
2019-04-06T10:44:06.191Z,163.12
2019-04-06T10:45:06.189Z,163.12
2019-04-06T10:46:06.176Z,146.25
2019-04-06T10:47:06.172Z,140.62
2019-04-06T10:48:06.353Z,140.62
2019-04-06T10:49:06.158Z,146.25
2019-04-06T10:50:06.151Z,151.87
2019-04-06T10:51:06.149Z,140.62
2019-04-06T10:52:06.141Z,135.00
2019-04-06T10:53:06.134Z,135.00
2019-04-06T10:54:06.126Z,135.00
2019-04-06T10:55:06.138Z,135.00
2019-04-06T10:56:06.115Z,129.37
2019-04-06T10:58:06.108Z,135.00
2019-04-06T10:59:06.093Z,129.37
2019-04-06T11:00:06.485Z,129.37
2019-04-06T11:01:06.081Z,129.37
2019-04-06T11:02:06.075Z,123.75
2019-04-06T11:03:06.074Z,123.75
2019-04-06T11:04:06.066Z,123.75
2019-04-06T11:05:06.060Z,123.75
2019-04-06T11:06:06.055Z,129.37
2019-04-06T11:07:06.048Z,129.37
2019-04-06T11:08:06.040Z,135.00
2019-04-06T11:09:06.032Z,135.00
2019-04-06T11:10:06.077Z,140.62
2019-04-06T11:11:06.023Z,146.25
2019-04-06T11:12:06.019Z,140.62
2019-04-06T11:13:06.013Z,135.00
2019-04-06T11:14:06.020Z,123.75
2019-04-06T11:15:06.019Z,118.12
2019-04-06T11:16:06.008Z,123.75
2019-04-06T11:17:06.000Z,129.37
2019-04-06T11:18:05.994Z,129.37
2019-04-06T11:19:05.991Z,123.75
2019-04-06T11:20:05.981Z,118.12
2019-04-06T11:21:05.975Z,123.75
2019-04-06T11:22:05.969Z,140.62
2019-04-06T11:23:05.966Z,135.00
2019-04-06T11:24:06.219Z,123.75
2019-04-06T11:25:05.999Z,129.37
2019-04-06T11:26:06.019Z,129.37
2019-04-06T11:27:05.947Z,118.12
2019-04-06T11:29:06.222Z,123.75
2019-04-06T11:30:13.164Z,112.50
2019-04-06T11:31:33.703Z,129.37
2019-04-06T11:32:33.701Z,140.62
2019-04-06T11:33:33.693Z,151.87
2019-04-06T11:34:33.689Z,157.50
2019-04-06T11:35:33.681Z,157.50
2019-04-06T11:36:33.675Z,135.00
2019-04-06T11:37:33.668Z,135.00
2019-04-06T11:38:33.661Z,135.00
2019-04-06T11:39:33.658Z,135.00
2019-04-06T11:40:33.778Z,129.37
2019-04-06T11:41:33.643Z,118.12
2019-04-06T11:42:33.929Z,123.75
2019-04-06T11:43:33.629Z,123.75
2019-04-06T11:44:33.623Z,118.12
2019-04-06T11:45:33.616Z,123.75
2019-04-06T11:46:33.636Z,123.75
2019-04-06T11:47:33.626Z,123.75
2019-04-06T11:48:33.752Z,118.12
2019-04-06T11:49:33.797Z,106.87
2019-04-06T11:50:33.630Z,106.87
2019-04-06T11:51:33.627Z,112.50
2019-04-06T11:52:33.705Z,95.62
2019-04-06T11:53:33.613Z,90.00
2019-04-06T11:54:33.607Z,84.37
2019-04-06T11:55:33.600Z,84.37
2019-04-06T11:56:33.866Z,84.37
2019-04-06T11:57:33.583Z,84.37
2019-04-06T11:58:33.646Z,78.75
2019-04-06T11:59:33.763Z,78.75
2019-04-06T12:00:33.792Z,78.75
2019-04-06T12:01:33.683Z,78.75
2019-04-06T12:02:33.552Z,78.75
2019-04-06T12:03:33.553Z,78.75
2019-04-06T12:04:33.541Z,78.75
2019-04-06T12:05:33.535Z,78.75
2019-04-06T12:06:33.635Z,73.12
2019-04-06T12:07:33.525Z,73.12
2019-04-06T12:08:33.635Z,73.12
2019-04-06T12:09:33.693Z,78.75
2019-04-06T12:10:33.506Z,73.12
2019-04-06T12:11:33.498Z,73.12
2019-04-06T12:12:33.758Z,67.50
2019-04-06T12:13:33.511Z,78.75
2019-04-06T12:14:33.513Z,78.75
2019-04-06T12:15:33.696Z,73.12
2019-04-06T12:16:33.493Z,78.75
2019-04-06T12:17:33.493Z,84.37
2019-04-06T12:18:33.818Z,90.00
2019-04-06T12:19:33.477Z,90.00
2019-04-06T12:20:33.468Z,84.37
2019-04-06T12:21:33.463Z,78.75
2019-04-06T12:22:33.748Z,73.12
2019-04-06T12:23:33.839Z,67.50
2019-04-06T12:24:33.730Z,56.25
2019-04-06T12:25:33.637Z,50.62
2019-04-06T12:26:33.452Z,50.62
2019-04-06T12:27:33.445Z,50.62
2019-04-06T12:29:01.163Z,45.00
2019-04-06T12:30:01.161Z,39.37
2019-04-06T12:31:01.165Z,33.75
2019-04-06T12:32:01.147Z,33.75
2019-04-06T12:33:01.144Z,33.75
2019-04-06T12:34:01.139Z,33.75
2019-04-06T12:35:01.131Z,33.75
2019-04-06T12:36:01.124Z,39.37
2019-04-06T12:37:01.121Z,39.37
2019-04-06T12:38:01.111Z,45.00
2019-04-06T12:39:01.105Z,50.62
2019-04-06T12:40:01.278Z,50.62
2019-04-06T12:41:01.090Z,56.25
2019-04-06T12:42:01.085Z,56.25
2019-04-06T12:43:01.118Z,56.25
2019-04-06T12:44:01.072Z,61.87
2019-04-06T12:45:01.065Z,67.50
2019-04-06T12:46:01.088Z,73.12
2019-04-06T12:47:01.059Z,73.12
2019-04-06T12:48:01.045Z,78.75
2019-04-06T12:49:01.071Z,73.12
2019-04-06T12:50:01.034Z,67.50
2019-04-06T12:51:01.027Z,61.87
2019-04-06T12:52:01.019Z,61.87
2019-04-06T12:53:01.218Z,61.87
2019-04-06T12:54:01.156Z,56.25
2019-04-06T12:55:01.548Z,56.25
2019-04-06T12:56:01.152Z,56.25
2019-04-06T12:57:00.988Z,50.62
2019-04-06T12:58:00.982Z,50.62
2019-04-06T12:59:00.977Z,50.62
2019-04-06T13:00:00.973Z,50.62
2019-04-06T13:01:00.966Z,50.62
2019-04-06T13:02:00.956Z,56.25
2019-04-06T13:03:00.951Z,56.25
2019-04-06T13:04:00.949Z,56.25
2019-04-06T13:05:00.936Z,56.25
2019-04-06T13:06:00.932Z,56.25
2019-04-06T13:07:01.288Z,61.87
2019-04-06T13:08:00.923Z,73.12
2019-04-06T13:09:00.981Z,84.37
2019-04-06T13:10:00.996Z,90.00
2019-04-06T13:11:01.125Z,84.37
2019-04-06T13:12:00.918Z,78.75
2019-04-06T13:13:00.911Z,78.75
2019-04-06T13:14:00.914Z,78.75
2019-04-06T13:15:00.897Z,78.75
2019-04-06T13:16:00.892Z,78.75
2019-04-06T13:17:00.939Z,78.75
2019-04-06T13:18:00.877Z,67.50
2019-04-06T13:19:00.975Z,61.87
2019-04-06T13:20:01.207Z,56.25
2019-04-06T13:21:01.075Z,56.25
2019-04-06T13:22:00.905Z,56.25
2019-04-06T13:23:00.862Z,56.25
2019-04-06T13:24:00.925Z,56.25
2019-04-06T13:25:00.851Z,56.25
2019-04-06T13:26:00.844Z,56.25
2019-04-06T13:27:00.911Z,50.62
2019-04-06T13:28:00.886Z,50.62
2019-04-06T13:29:01.180Z,50.62
2019-04-06T13:30:00.824Z,50.62
2019-04-06T13:31:03.560Z,50.62
2019-04-06T13:32:00.807Z,50.62
2019-04-06T13:33:00.801Z,50.62
2019-04-06T13:34:00.803Z,56.25
2019-04-06T13:35:01.041Z,50.62
2019-04-06T13:36:00.804Z,50.62
2019-04-06T13:37:00.943Z,45.00
2019-04-06T13:38:00.790Z,45.00
2019-04-06T13:39:00.835Z,45.00
2019-04-06T13:40:00.776Z,45.00
2019-04-06T13:41:00.769Z,45.00
2019-04-06T13:42:00.764Z,45.00
2019-04-06T13:43:00.757Z,50.62
2019-04-06T13:44:00.754Z,50.62
2019-04-06T13:45:00.748Z,50.62
2019-04-06T13:46:00.738Z,50.62
2019-04-06T13:47:00.731Z,50.62
2019-04-06T13:48:00.724Z,50.62
2019-04-06T13:49:00.724Z,50.62
2019-04-06T13:50:00.712Z,50.62
2019-04-06T13:51:00.706Z,50.62
2019-04-06T13:52:00.730Z,45.00
2019-04-06T13:53:01.636Z,50.62
2019-04-06T13:54:00.686Z,50.62
2019-04-06T13:55:00.678Z,50.62
2019-04-06T13:56:00.730Z,45.00
2019-04-06T13:57:00.662Z,45.00
2019-04-06T13:58:00.658Z,39.37
2019-04-06T13:59:00.652Z,39.37
2019-04-06T14:00:00.669Z,33.75
2019-04-06T14:01:12.640Z,33.75
2019-04-06T14:02:28.391Z,33.75
2019-04-06T14:03:28.388Z,33.75
2019-04-06T14:04:28.383Z,39.37
2019-04-06T14:05:28.458Z,39.37
2019-04-06T14:06:28.368Z,39.37
2019-04-06T14:07:28.364Z,33.75
2019-04-06T14:08:28.758Z,33.75
2019-04-06T14:09:28.351Z,33.75
2019-04-06T14:10:28.343Z,28.12
2019-04-06T14:11:28.663Z,33.75
2019-04-06T14:12:28.547Z,33.75
2019-04-06T14:13:28.325Z,33.75
2019-04-06T14:14:29.602Z,33.75
2019-04-06T14:15:28.310Z,33.75
2019-04-06T14:16:28.664Z,33.75
2019-04-06T14:17:28.313Z,33.75
2019-04-06T14:18:28.307Z,33.75
2019-04-06T14:19:28.584Z,33.75
2019-04-06T14:20:28.296Z,39.37
2019-04-06T14:21:28.288Z,39.37
2019-04-06T14:22:28.283Z,33.75
2019-04-06T14:23:28.653Z,39.37
2019-04-06T14:24:28.486Z,33.75
2019-04-06T14:25:28.314Z,33.75
2019-04-06T14:26:28.352Z,33.75
2019-04-06T14:27:28.302Z,33.75
2019-04-06T14:28:28.488Z,33.75
2019-04-06T14:29:28.286Z,33.75
2019-04-06T14:30:28.281Z,33.75
2019-04-06T14:31:30.347Z,33.75
2019-04-06T14:32:28.270Z,39.37
2019-04-06T14:33:28.263Z,39.37
2019-04-06T14:34:28.273Z,39.37
2019-04-06T14:35:28.250Z,39.37
2019-04-06T14:36:28.395Z,39.37
2019-04-06T14:37:28.463Z,39.37
2019-04-06T14:38:28.238Z,39.37
2019-04-06T14:39:28.226Z,39.37
2019-04-06T14:40:28.218Z,39.37
2019-04-06T14:41:28.212Z,39.37
2019-04-06T14:42:28.481Z,39.37
2019-04-06T14:43:28.203Z,39.37
2019-04-06T14:44:28.202Z,39.37
2019-04-06T14:45:28.188Z,39.37
2019-04-06T14:46:28.190Z,39.37
2019-04-06T14:47:28.199Z,45.00
2019-04-06T14:48:28.195Z,39.37
2019-04-06T14:49:31.790Z,39.37
2019-04-06T14:50:28.751Z,33.75
2019-04-06T14:51:28.150Z,33.75
2019-04-06T14:52:28.268Z,33.75
2019-04-06T14:53:28.187Z,39.37
2019-04-06T14:54:28.166Z,39.37
2019-04-06T14:55:28.159Z,33.75
2019-04-06T14:56:28.165Z,33.75
2019-04-06T14:57:28.377Z,28.12
2019-04-06T14:58:28.475Z,28.12
2019-04-06T14:59:28.162Z,28.12
2019-04-06T15:00:28.151Z,28.12
2019-04-06T15:01:39.136Z,28.12
2019-04-06T15:02:56.051Z,33.75
2019-04-06T15:03:55.863Z,28.12
2019-04-06T15:04:55.857Z,28.12
2019-04-06T15:05:55.850Z,28.12
2019-04-06T15:06:55.964Z,28.12
2019-04-06T15:07:57.033Z,28.12
2019-04-06T15:08:55.829Z,28.12
2019-04-06T15:09:55.826Z,28.12
2019-04-06T15:10:55.823Z,28.12
2019-04-06T15:11:55.933Z,28.12
2019-04-06T15:12:55.808Z,28.12
2019-04-06T15:13:55.799Z,22.50
2019-04-06T15:14:56.140Z,28.12
2019-04-06T15:15:55.788Z,22.50
2019-04-06T15:16:55.946Z,22.50
2019-04-06T15:17:55.772Z,22.50
2019-04-06T15:18:55.767Z,22.50
2019-04-06T15:19:55.977Z,22.50
2019-04-06T15:20:56.093Z,22.50
2019-04-06T15:21:56.084Z,22.50
2019-04-06T15:22:55.741Z,28.12
2019-04-06T15:23:56.008Z,28.12
2019-04-06T15:24:55.739Z,28.12
2019-04-06T15:25:55.830Z,28.12
2019-04-06T15:26:55.712Z,28.12
2019-04-06T15:27:55.705Z,28.12
2019-04-06T15:28:55.700Z,22.50
2019-04-06T15:29:55.692Z,22.50
2019-04-06T15:30:55.707Z,22.50
2019-04-06T15:31:55.704Z,22.50
2019-04-06T15:32:55.717Z,22.50
2019-04-06T15:33:55.710Z,22.50
2019-04-06T15:34:55.690Z,22.50
2019-04-06T15:35:55.682Z,22.50
2019-04-06T15:36:55.699Z,22.50
2019-04-06T15:37:55.697Z,22.50
2019-04-06T15:38:55.688Z,22.50
2019-04-06T15:39:55.682Z,22.50
2019-04-06T15:40:55.725Z,22.50
2019-04-06T15:41:57.407Z,22.50
2019-04-06T15:42:55.764Z,22.50
2019-04-06T15:43:55.706Z,22.50
2019-04-06T15:44:55.920Z,22.50
2019-04-06T15:45:55.898Z,22.50
2019-04-06T15:46:55.663Z,22.50
2019-04-06T15:47:56.097Z,22.50
2019-04-06T15:48:55.648Z,22.50
2019-04-06T15:49:55.893Z,22.50
2019-04-06T15:50:55.876Z,22.50
2019-04-06T15:51:55.631Z,22.50
2019-04-06T15:52:55.961Z,22.50
2019-04-06T15:53:55.895Z,22.50
2019-04-06T15:54:55.619Z,22.50
2019-04-06T15:55:55.613Z,22.50
2019-04-06T15:56:55.996Z,22.50
2019-04-06T15:57:55.600Z,22.50
2019-04-06T15:58:55.594Z,22.50
2019-04-06T15:59:55.589Z,22.50
2019-04-06T16:00:55.582Z,22.50
2019-04-06T16:02:01.603Z,22.50
2019-04-06T16:03:23.591Z,22.50
2019-04-06T16:04:23.292Z,22.50
2019-04-06T16:05:23.285Z,22.50
2019-04-06T16:06:23.328Z,22.50
2019-04-06T16:07:31.423Z,22.50
2019-04-06T16:08:50.998Z,16.87
2019-04-06T16:09:51.084Z,16.87
2019-04-06T16:10:51.266Z,16.87
2019-04-06T16:11:51.211Z,16.87
2019-04-06T16:12:50.973Z,16.87
2019-04-06T16:13:51.058Z,16.87
2019-04-06T16:14:50.965Z,16.87
2019-04-06T16:15:51.169Z,16.87
2019-04-06T16:16:50.950Z,16.87
2019-04-06T16:17:50.944Z,16.87
2019-04-06T16:18:51.157Z,16.87
2019-04-06T16:19:50.930Z,16.87
2019-04-06T16:20:50.925Z,16.87
2019-04-06T16:21:50.920Z,16.87
2019-04-06T16:22:50.913Z,16.87
2019-04-06T16:24:01.581Z,16.87
2019-04-06T16:24:52.894Z,16.87
2019-04-06T16:25:50.990Z,16.87
2019-04-06T16:26:50.886Z,16.87
2019-04-06T16:27:50.878Z,16.87
2019-04-06T16:28:51.247Z,16.87
2019-04-06T16:29:50.860Z,16.87
2019-04-06T16:30:51.559Z,16.87
2019-04-06T16:31:51.074Z,16.87
2019-04-06T16:32:50.844Z,16.87
2019-04-06T16:33:50.837Z,16.87
2019-04-06T16:34:50.829Z,11.25
2019-04-06T16:35:51.089Z,11.25
2019-04-06T16:36:50.939Z,11.25
2019-04-06T16:37:50.811Z,11.25
2019-04-06T16:38:50.804Z,11.25
2019-04-06T16:39:50.805Z,11.25
2019-04-06T16:40:51.042Z,11.25
2019-04-06T16:41:51.257Z,11.25
2019-04-06T16:42:50.777Z,11.25
2019-04-06T16:43:50.771Z,11.25
2019-04-06T16:44:50.767Z,11.25
2019-04-06T16:45:51.178Z,11.25
2019-04-06T16:46:50.753Z,11.25
2019-04-06T16:47:50.747Z,11.25
2019-04-06T16:48:50.748Z,11.25
2019-04-06T16:49:51.116Z,11.25
2019-04-06T16:50:51.133Z,11.25
2019-04-06T16:51:50.752Z,11.25
2019-04-06T16:52:50.713Z,11.25
2019-04-06T16:53:50.707Z,11.25
2019-04-06T16:54:50.724Z,11.25
2019-04-06T16:55:50.696Z,11.25
2019-04-06T16:56:50.690Z,11.25
2019-04-06T16:57:50.680Z,11.25
2019-04-06T16:58:50.689Z,11.25
2019-04-06T16:59:50.671Z,11.25
2019-04-06T17:00:50.665Z,11.25
2019-04-06T17:01:50.657Z,11.25
2019-04-06T17:02:50.845Z,11.25
2019-04-06T17:03:50.644Z,5.62
2019-04-06T17:04:50.700Z,5.62
2019-04-06T17:05:50.714Z,11.25
2019-04-06T17:06:51.089Z,5.62
2019-04-06T17:07:51.371Z,5.62
2019-04-06T17:08:50.746Z,5.62
2019-04-06T17:09:50.614Z,5.62
2019-04-06T17:10:50.757Z,5.62
2019-04-06T17:11:50.990Z,5.62
2019-04-06T17:12:50.585Z,5.62
2019-04-06T17:13:51.017Z,5.62
2019-04-06T17:14:50.577Z,5.62
2019-04-06T17:15:50.567Z,5.62
2019-04-06T17:16:50.899Z,5.62
2019-04-06T17:17:50.554Z,5.62
2019-04-06T17:18:50.549Z,5.62
2019-04-06T17:19:50.764Z,5.62
2019-04-06T17:20:50.532Z,5.62
2019-04-06T17:21:50.526Z,5.62
2019-04-06T17:22:50.533Z,5.62
2019-04-06T17:23:50.523Z,5.62
2019-04-06T17:24:50.510Z,5.62
2019-04-06T17:25:50.506Z,5.62
2019-04-06T17:26:50.509Z,5.62
2019-04-06T17:27:50.489Z,5.62
2019-04-06T17:28:50.481Z,5.62
2019-04-06T17:29:50.477Z,5.62
2019-04-06T17:30:50.842Z,0.00
2019-04-06T17:31:50.734Z,0.00
2019-04-06T17:32:50.460Z,0.00
2019-04-06T17:33:50.701Z,0.00
2019-04-06T17:34:54.891Z,0.00
2019-04-06T17:35:50.439Z,0.00
2019-04-06T17:36:50.431Z,0.00
2019-04-06T17:37:50.428Z,0.00
2019-04-06T17:38:50.420Z,0.00
2019-04-06T17:39:50.415Z,0.00
2019-04-06T17:40:50.429Z,0.00
2019-04-06T17:41:50.428Z,0.00
2019-04-06T17:42:50.421Z,0.00
2019-04-06T17:43:50.747Z,0.00
2019-04-06T17:44:50.897Z,0.00
2019-04-06T17:45:50.401Z,0.00
2019-04-06T17:46:50.496Z,0.00
2019-04-06T17:47:50.390Z,0.00
2019-04-06T17:48:50.823Z,0.00
2019-04-06T17:49:50.671Z,0.00
2019-04-06T17:50:50.370Z,0.00
2019-04-06T17:51:50.647Z,0.00
2019-04-06T17:52:50.360Z,0.00
2019-04-06T17:53:50.355Z,0.00
2019-04-06T17:54:50.388Z,0.00
2019-04-06T17:55:50.533Z,0.00
2019-04-06T17:56:50.332Z,0.00
2019-04-06T17:57:50.323Z,0.00
2019-04-06T17:58:50.704Z,0.00
2019-04-06T17:59:50.479Z,0.00
2019-04-06T18:00:50.454Z,0.00
2019-04-06T18:01:50.309Z,0.00
2019-04-06T18:02:51.054Z,0.00
2019-04-06T18:03:50.293Z,0.00
2019-04-06T18:04:50.288Z,0.00
2019-04-06T18:05:50.722Z,0.00
2019-04-06T18:06:50.614Z,0.00
2019-04-06T18:07:50.263Z,0.00
2019-04-06T18:08:50.260Z,0.00
2019-04-06T18:09:50.727Z,0.00
2019-04-06T18:10:50.273Z,0.00
2019-04-06T18:11:50.704Z,0.00
2019-04-06T18:12:50.231Z,0.00
2019-04-06T18:13:50.289Z,0.00
2019-04-06T18:14:50.583Z,0.00
2019-04-06T18:15:50.214Z,0.00
2019-04-06T18:16:50.548Z,0.00
2019-04-06T18:17:50.470Z,0.00
2019-04-06T18:18:50.197Z,0.00
2019-04-06T18:19:50.188Z,0.00
2019-04-06T18:20:50.319Z,0.00
2019-04-06T18:21:50.175Z,0.00
2019-04-06T18:22:50.223Z,0.00
2019-04-06T18:23:50.636Z,0.00
2019-04-06T18:24:50.152Z,0.00
2019-04-06T18:25:50.152Z,0.00
2019-04-06T18:26:50.150Z,0.00
2019-04-06T18:27:50.561Z,0.00
2019-04-06T18:28:50.832Z,0.00
2019-04-06T18:29:50.121Z,0.00
2019-04-06T18:30:50.115Z,0.00
2019-04-06T18:31:50.232Z,0.00
2019-04-06T18:32:59.665Z,0.00
2019-04-06T18:34:18.253Z,0.00
2019-04-06T18:35:17.929Z,0.00
2019-04-06T18:36:17.860Z,0.00
2019-04-06T18:37:18.003Z,0.00
2019-04-06T18:38:17.865Z,0.00
2019-04-06T18:39:17.983Z,0.00
2019-04-06T18:40:18.134Z,0.00
2019-04-06T18:41:17.847Z,0.00
2019-04-06T18:42:17.837Z,0.00
2019-04-06T18:43:17.831Z,0.00
2019-04-06T18:44:17.836Z,0.00
2019-04-06T18:45:17.818Z,0.00
2019-04-06T18:46:17.969Z,0.00
2019-04-06T18:47:17.802Z,0.00
2019-04-06T18:48:18.137Z,0.00
2019-04-06T18:49:18.149Z,0.00
2019-04-06T18:50:17.782Z,0.00
2019-04-06T18:51:17.963Z,0.00
2019-04-06T18:52:17.819Z,0.00
2019-04-06T18:53:18.172Z,0.00
2019-04-06T18:54:17.755Z,0.00
2019-04-06T18:55:17.786Z,0.00
2019-04-06T18:56:17.741Z,0.00
2019-04-06T18:57:17.736Z,0.00
2019-04-06T18:58:17.730Z,0.00
2019-04-06T18:59:17.731Z,0.00
2019-04-06T19:00:17.714Z,0.00
2019-04-06T19:01:18.044Z,0.00
2019-04-06T19:02:17.699Z,0.00
2019-04-06T19:03:17.691Z,0.00
2019-04-06T19:04:18.005Z,0.00
2019-04-06T19:05:17.696Z,0.00
2019-04-06T19:06:17.893Z,0.00
2019-04-06T19:07:17.665Z,0.00
2019-04-06T19:08:17.692Z,0.00
2019-04-06T19:09:23.593Z,0.00
2019-04-06T19:10:45.368Z,0.00
2019-04-06T19:11:54.301Z,0.00
2019-04-06T19:13:13.549Z,0.00
2019-04-06T19:14:13.081Z,0.00
2019-04-06T19:15:13.625Z,0.00
2019-04-06T19:16:13.071Z,0.00
2019-04-06T19:17:13.064Z,0.00
2019-04-06T19:18:13.458Z,0.00
2019-04-06T19:19:13.048Z,0.00
2019-04-06T19:20:13.044Z,0.00
2019-04-06T19:21:13.035Z,0.00
2019-04-06T19:22:13.542Z,0.00
2019-04-06T19:23:13.034Z,0.00
2019-04-06T19:24:13.802Z,0.00
2019-04-06T19:25:13.011Z,0.00
2019-04-06T19:26:13.004Z,0.00
2019-04-06T19:27:12.998Z,0.00
2019-04-06T19:28:12.990Z,0.00
2019-04-06T19:29:12.986Z,0.00
2019-04-06T19:30:12.979Z,0.00
2019-04-06T19:31:13.405Z,0.00
2019-04-06T19:32:12.972Z,0.00
2019-04-06T19:33:22.495Z,0.00
2019-04-06T19:34:40.687Z,0.00
2019-04-06T19:35:40.682Z,0.00
2019-04-06T19:36:40.717Z,0.00
2019-04-06T19:37:41.151Z,0.00
2019-04-06T19:38:40.662Z,0.00
2019-04-06T19:39:41.051Z,0.00
2019-04-06T19:40:40.651Z,0.00
2019-04-06T19:41:40.764Z,0.00
2019-04-06T19:42:40.824Z,0.00
2019-04-06T19:43:40.999Z,0.00
2019-04-06T19:44:40.626Z,0.00
2019-04-06T19:45:40.865Z,0.00
2019-04-06T19:46:40.611Z,0.00
2019-04-06T19:47:40.873Z,0.00
2019-04-06T19:48:41.234Z,0.00
2019-04-06T19:49:40.593Z,0.00
2019-04-06T19:50:40.745Z,0.00
2019-04-06T19:51:40.759Z,0.00
2019-04-06T19:52:40.618Z,0.00
2019-04-06T19:53:40.611Z,0.00
2019-04-06T19:54:40.607Z,0.00
2019-04-06T19:55:41.025Z,0.00
2019-04-06T19:56:40.796Z,0.00
2019-04-06T19:57:40.585Z,0.00
2019-04-06T19:58:40.577Z,0.00
2019-04-06T19:59:40.995Z,0.00
2019-04-06T20:00:40.579Z,0.00
2019-04-06T20:01:40.574Z,0.00
2019-04-06T20:02:40.566Z,0.00
2019-04-06T20:03:40.557Z,0.00
2019-04-06T20:04:40.866Z,0.00
2019-04-06T20:05:40.546Z,0.00
2019-04-06T20:06:41.021Z,0.00
2019-04-06T20:07:40.969Z,0.00
2019-04-06T20:08:41.084Z,0.00
2019-04-06T20:09:40.970Z,0.00
2019-04-06T20:10:40.514Z,0.00
2019-04-06T20:11:41.085Z,0.00
2019-04-06T20:12:40.524Z,0.00
2019-04-06T20:13:40.515Z,0.00
2019-04-06T20:14:40.752Z,0.00
2019-04-06T20:15:41.056Z,0.00
2019-04-06T20:16:40.814Z,0.00
2019-04-06T20:17:40.699Z,0.00
2019-04-06T20:18:40.488Z,0.00
2019-04-06T20:19:40.667Z,0.00
2019-04-06T20:20:40.471Z,0.00
2019-04-06T20:21:40.997Z,0.00
2019-04-06T20:22:40.456Z,0.00
2019-04-06T20:23:40.450Z,0.00
2019-04-06T20:24:40.676Z,0.00
2019-04-06T20:25:40.867Z,0.00
2019-04-06T20:26:40.430Z,0.00
2019-04-06T20:27:40.887Z,0.00
2019-04-06T20:28:40.414Z,0.00
2019-04-06T20:29:40.799Z,0.00
2019-04-06T20:30:40.791Z,0.00
2019-04-06T20:31:40.594Z,0.00
2019-04-06T20:32:40.401Z,0.00
2019-04-06T20:33:48.187Z,0.00
2019-04-06T20:35:08.112Z,0.00
2019-04-06T20:36:08.129Z,0.00
2019-04-06T20:37:08.431Z,0.00
2019-04-06T20:38:08.768Z,0.00
2019-04-06T20:39:08.100Z,0.00
2019-04-06T20:40:08.645Z,0.00
2019-04-06T20:41:08.581Z,0.00
2019-04-06T20:42:08.082Z,0.00
2019-04-06T20:43:08.433Z,0.00
2019-04-06T20:44:08.070Z,0.00
2019-04-06T20:45:08.281Z,0.00
2019-04-06T20:46:08.138Z,0.00
2019-04-06T20:47:08.046Z,0.00
2019-04-06T20:48:08.041Z,0.00
2019-04-06T20:49:08.039Z,0.00
2019-04-06T20:50:08.121Z,0.00
2019-04-06T20:51:08.021Z,0.00
2019-04-06T20:52:08.036Z,0.00
2019-04-06T20:53:08.029Z,0.00
2019-04-06T20:54:09.036Z,0.00
2019-04-06T20:55:08.104Z,0.00
2019-04-06T20:56:08.080Z,0.00
2019-04-06T20:57:08.005Z,0.00
2019-04-06T20:58:08.348Z,0.00
2019-04-06T20:59:07.991Z,0.00
2019-04-06T21:00:07.989Z,0.00
2019-04-06T21:01:07.980Z,0.00
2019-04-06T21:02:08.135Z,0.00
2019-04-06T21:03:07.966Z,0.00
2019-04-06T21:04:08.219Z,0.00
2019-04-06T21:05:08.056Z,0.00
2019-04-06T21:06:07.943Z,0.00
2019-04-06T21:07:07.939Z,0.00
2019-04-06T21:08:07.932Z,0.00
2019-04-06T21:09:07.924Z,0.00
2019-04-06T21:10:07.921Z,0.00
2019-04-06T21:11:08.328Z,0.00
2019-04-06T21:12:07.909Z,0.00
2019-04-06T21:13:08.229Z,0.00
2019-04-06T21:14:07.965Z,0.00
2019-04-06T21:15:16.887Z,0.00
2019-04-06T21:16:10.221Z,0.00
2019-04-06T21:17:07.872Z,0.00
2019-04-06T21:18:07.870Z,0.00
2019-04-06T21:19:08.201Z,0.00
2019-04-06T21:20:08.066Z,0.00
2019-04-06T21:21:07.860Z,0.00
2019-04-06T21:22:08.081Z,0.00
2019-04-06T21:23:07.979Z,0.00
2019-04-06T21:24:08.009Z,0.00
2019-04-06T21:25:08.424Z,0.00
2019-04-06T21:26:08.288Z,0.00
2019-04-06T21:27:07.807Z,0.00
2019-04-06T21:28:07.919Z,0.00
2019-04-06T21:29:07.992Z,0.00
2019-04-06T21:30:08.298Z,0.00
2019-04-06T21:31:07.780Z,0.00
2019-04-06T21:32:07.872Z,0.00
2019-04-06T21:33:07.993Z,0.00
2019-04-06T21:34:11.877Z,0.00
2019-04-06T21:35:08.344Z,0.00
2019-04-06T21:36:08.369Z,0.00
2019-04-06T21:37:07.750Z,0.00
2019-04-06T21:38:07.794Z,0.00
2019-04-06T21:39:07.735Z,0.00
2019-04-06T21:40:07.728Z,0.00
2019-04-06T21:41:08.001Z,0.00
2019-04-06T21:42:07.714Z,0.00
2019-04-06T21:43:07.861Z,0.00
2019-04-06T21:44:07.701Z,0.00
2019-04-06T21:45:07.911Z,0.00
2019-04-06T21:46:07.771Z,0.00
2019-04-06T21:47:08.124Z,0.00
2019-04-06T21:48:07.679Z,0.00
2019-04-06T21:49:07.756Z,0.00
2019-04-06T21:50:08.562Z,0.00
2019-04-06T21:51:07.885Z,0.00
2019-04-06T21:52:07.663Z,0.00
2019-04-06T21:53:08.097Z,0.00